sensor_id;sensor_type;location;lat;lon;timestamp;P1;durP1;ratioP1;P2;durP2;ratioP2
45688;SDS011;31400;48.132;20.872;2023-07-30T00:04:20;4.30;;;2.23;;
45688;SDS011;31400;48.132;20.872;2023-07-30T00:06:46;4.80;;;2.70;;
45688;SDS011;31400;48.132;20.872;2023-07-30T00:09:15;3.08;;;2.05;;
45688;SDS011;31400;48.132;20.872;2023-07-30T00:11:41;5.18;;;2.70;;
45688;SDS011;31400;48.132;20.872;2023-07-30T00:16:34;4.95;;;3.30;;
45688;SDS011;31400;48.132;20.872;2023-07-30T00:19:00;4.68;;;2.53;;
45688;SDS011;31400;48.132;20.872;2023-07-30T00:23:58;12.18;;;2.72;;
45688;SDS011;31400;48.132;20.872;2023-07-30T00:26:27;4.97;;;3.03;;
45688;SDS011;31400;48.132;20.872;2023-07-30T00:28:54;5.38;;;2.88;;
45688;SDS011;31400;48.132;20.872;2023-07-30T00:33:50;6.80;;;2.75;;
45688;SDS011;31400;48.132;20.872;2023-07-30T00:36:16;3.20;;;2.15;;
45688;SDS011;31400;48.132;20.872;2023-07-30T00:38:54;4.85;;;2.20;;
45688;SDS011;31400;48.132;20.872;2023-07-30T00:41:26;9.32;;;2.75;;
45688;SDS011;31400;48.132;20.872;2023-07-30T00:43:55;3.53;;;2.17;;
45688;SDS011;31400;48.132;20.872;2023-07-30T00:46:21;3.95;;;2.42;;
45688;SDS011;31400;48.132;20.872;2023-07-30T00:51:15;6.40;;;2.60;;
45688;SDS011;31400;48.132;20.872;2023-07-30T00:53:42;3.08;;;2.22;;
45688;SDS011;31400;48.132;20.872;2023-07-30T00:58:34;5.88;;;2.20;;
45688;SDS011;31400;48.132;20.872;2023-07-30T01:01:00;5.35;;;2.72;;
45688;SDS011;31400;48.132;20.872;2023-07-30T01:05:52;3.63;;;2.53;;
45688;SDS011;31400;48.132;20.872;2023-07-30T01:08:19;8.70;;;2.53;;
45688;SDS011;31400;48.132;20.872;2023-07-30T01:10:45;5.68;;;2.72;;
45688;SDS011;31400;48.132;20.872;2023-07-30T01:13:13;4.00;;;2.28;;
45688;SDS011;31400;48.132;20.872;2023-07-30T01:15:41;8.43;;;2.33;;
45688;SDS011;31400;48.132;20.872;2023-07-30T01:18:11;4.72;;;2.42;;
45688;SDS011;31400;48.132;20.872;2023-07-30T01:20:37;3.28;;;2.10;;
45688;SDS011;31400;48.132;20.872;2023-07-30T01:25:30;10.75;;;2.72;;
45688;SDS011;31400;48.132;20.872;2023-07-30T01:27:58;4.90;;;2.47;;
45688;SDS011;31400;48.132;20.872;2023-07-30T01:30:25;5.70;;;3.13;;
45688;SDS011;31400;48.132;20.872;2023-07-30T01:32:52;3.13;;;2.15;;
45688;SDS011;31400;48.132;20.872;2023-07-30T01:35:20;4.90;;;2.80;;
45688;SDS011;31400;48.132;20.872;2023-07-30T01:37:49;3.67;;;2.30;;
45688;SDS011;31400;48.132;20.872;2023-07-30T01:40:16;7.15;;;2.70;;
45688;SDS011;31400;48.132;20.872;2023-07-30T01:42:42;5.15;;;2.55;;
45688;SDS011;31400;48.132;20.872;2023-07-30T01:47:34;4.65;;;2.28;;
45688;SDS011;31400;48.132;20.872;2023-07-30T01:50:00;3.80;;;2.50;;
45688;SDS011;31400;48.132;20.872;2023-07-30T01:52:27;4.40;;;2.40;;
45688;SDS011;31400;48.132;20.872;2023-07-30T01:57:21;3.95;;;2.00;;
45688;SDS011;31400;48.132;20.872;2023-07-30T02:02:15;5.63;;;2.42;;
45688;SDS011;31400;48.132;20.872;2023-07-30T02:04:51;7.25;;;2.83;;
45688;SDS011;31400;48.132;20.872;2023-07-30T02:07:17;4.95;;;2.58;;
45688;SDS011;31400;48.132;20.872;2023-07-30T02:09:44;9.77;;;2.72;;
45688;SDS011;31400;48.132;20.872;2023-07-30T02:12:10;5.32;;;2.35;;
45688;SDS011;31400;48.132;20.872;2023-07-30T02:17:03;5.25;;;2.75;;
45688;SDS011;31400;48.132;20.872;2023-07-30T02:19:29;3.92;;;2.40;;
45688;SDS011;31400;48.132;20.872;2023-07-30T02:22:00;4.10;;;2.40;;
45688;SDS011;31400;48.132;20.872;2023-07-30T02:26:52;4.03;;;2.33;;
45688;SDS011;31400;48.132;20.872;2023-07-30T02:31:44;3.85;;;2.38;;
45688;SDS011;31400;48.132;20.872;2023-07-30T02:34:12;6.15;;;2.58;;
45688;SDS011;31400;48.132;20.872;2023-07-30T02:39:04;3.58;;;2.38;;
45688;SDS011;31400;48.132;20.872;2023-07-30T02:43:56;8.05;;;2.65;;
45688;SDS011;31400;48.132;20.872;2023-07-30T02:46:25;5.78;;;2.67;;
45688;SDS011;31400;48.132;20.872;2023-07-30T02:48:54;4.80;;;2.67;;
45688;SDS011;31400;48.132;20.872;2023-07-30T02:51:26;8.05;;;3.03;;
45688;SDS011;31400;48.132;20.872;2023-07-30T02:56:18;15.18;;;2.65;;
45688;SDS011;31400;48.132;20.872;2023-07-30T03:01:10;5.03;;;2.70;;
45688;SDS011;31400;48.132;20.872;2023-07-30T03:03:36;3.40;;;2.20;;
45688;SDS011;31400;48.132;20.872;2023-07-30T03:06:02;3.58;;;2.53;;
45688;SDS011;31400;48.132;20.872;2023-07-30T03:08:31;18.30;;;3.10;;
45688;SDS011;31400;48.132;20.872;2023-07-30T03:13:23;9.43;;;2.67;;
45688;SDS011;31400;48.132;20.872;2023-07-30T03:18:19;3.20;;;2.30;;
45688;SDS011;31400;48.132;20.872;2023-07-30T03:23:11;2.88;;;2.05;;
45688;SDS011;31400;48.132;20.872;2023-07-30T03:28:03;7.07;;;3.13;;
45688;SDS011;31400;48.132;20.872;2023-07-30T03:30:29;3.67;;;2.55;;
45688;SDS011;31400;48.132;20.872;2023-07-30T03:35:21;3.72;;;2.08;;
45688;SDS011;31400;48.132;20.872;2023-07-30T03:40:13;4.13;;;2.42;;
45688;SDS011;31400;48.132;20.872;2023-07-30T03:45:05;3.80;;;2.22;;
45688;SDS011;31400;48.132;20.872;2023-07-30T03:47:31;8.85;;;2.30;;
45688;SDS011;31400;48.132;20.872;2023-07-30T03:52:24;4.25;;;2.08;;
45688;SDS011;31400;48.132;20.872;2023-07-30T03:57:16;4.35;;;2.10;;
45688;SDS011;31400;48.132;20.872;2023-07-30T04:02:10;4.05;;;2.88;;
45688;SDS011;31400;48.132;20.872;2023-07-30T04:04:40;7.80;;;2.53;;
45688;SDS011;31400;48.132;20.872;2023-07-30T04:07:07;4.20;;;2.38;;
45688;SDS011;31400;48.132;20.872;2023-07-30T04:12:05;4.43;;;2.53;;
45688;SDS011;31400;48.132;20.872;2023-07-30T04:14:31;7.10;;;2.55;;
45688;SDS011;31400;48.132;20.872;2023-07-30T04:19:23;2.90;;;2.20;;
45688;SDS011;31400;48.132;20.872;2023-07-30T04:21:49;4.35;;;2.42;;
45688;SDS011;31400;48.132;20.872;2023-07-30T04:26:41;6.75;;;2.63;;
45688;SDS011;31400;48.132;20.872;2023-07-30T04:29:13;4.18;;;2.65;;
45688;SDS011;31400;48.132;20.872;2023-07-30T04:31:40;4.32;;;2.65;;
45688;SDS011;31400;48.132;20.872;2023-07-30T04:36:32;3.92;;;2.00;;
45688;SDS011;31400;48.132;20.872;2023-07-30T04:39:07;2.80;;;1.90;;
45688;SDS011;31400;48.132;20.872;2023-07-30T04:41:36;3.45;;;1.90;;
45688;SDS011;31400;48.132;20.872;2023-07-30T04:44:02;4.32;;;2.08;;
45688;SDS011;31400;48.132;20.872;2023-07-30T04:48:58;5.43;;;2.38;;
45688;SDS011;31400;48.132;20.872;2023-07-30T04:51:24;2.83;;;1.98;;
45688;SDS011;31400;48.132;20.872;2023-07-30T04:53:50;3.70;;;2.08;;
45688;SDS011;31400;48.132;20.872;2023-07-30T04:56:19;3.67;;;1.83;;
45688;SDS011;31400;48.132;20.872;2023-07-30T04:58:45;3.55;;;1.77;;
45688;SDS011;31400;48.132;20.872;2023-07-30T05:01:12;5.07;;;2.20;;
45688;SDS011;31400;48.132;20.872;2023-07-30T05:03:44;3.40;;;2.10;;
45688;SDS011;31400;48.132;20.872;2023-07-30T05:06:12;2.88;;;1.80;;
45688;SDS011;31400;48.132;20.872;2023-07-30T05:08:38;3.03;;;1.85;;
45688;SDS011;31400;48.132;20.872;2023-07-30T05:11:17;2.85;;;1.55;;
45688;SDS011;31400;48.132;20.872;2023-07-30T05:13:43;3.83;;;1.70;;
45688;SDS011;31400;48.132;20.872;2023-07-30T05:16:09;4.00;;;1.73;;
45688;SDS011;31400;48.132;20.872;2023-07-30T05:18:35;4.07;;;2.03;;
45688;SDS011;31400;48.132;20.872;2023-07-30T05:21:01;3.60;;;2.42;;
45688;SDS011;31400;48.132;20.872;2023-07-30T05:23:27;3.40;;;2.22;;
45688;SDS011;31400;48.132;20.872;2023-07-30T05:25:56;3.60;;;2.30;;
45688;SDS011;31400;48.132;20.872;2023-07-30T05:28:25;4.13;;;2.72;;
45688;SDS011;31400;48.132;20.872;2023-07-30T05:30:51;4.47;;;2.55;;
45688;SDS011;31400;48.132;20.872;2023-07-30T05:33:20;5.53;;;2.97;;
45688;SDS011;31400;48.132;20.872;2023-07-30T05:35:46;3.92;;;2.33;;
45688;SDS011;31400;48.132;20.872;2023-07-30T05:38:28;4.50;;;2.38;;
45688;SDS011;31400;48.132;20.872;2023-07-30T05:41:01;3.15;;;2.03;;
45688;SDS011;31400;48.132;20.872;2023-07-30T05:43:27;5.15;;;2.45;;
45688;SDS011;31400;48.132;20.872;2023-07-30T05:45:53;2.95;;;1.80;;
45688;SDS011;31400;48.132;20.872;2023-07-30T05:48:19;5.57;;;2.38;;
45688;SDS011;31400;48.132;20.872;2023-07-30T05:50:45;3.15;;;2.17;;
45688;SDS011;31400;48.132;20.872;2023-07-30T05:53:11;4.32;;;2.70;;
45688;SDS011;31400;48.132;20.872;2023-07-30T05:55:40;5.43;;;2.40;;
45688;SDS011;31400;48.132;20.872;2023-07-30T05:58:19;3.15;;;1.95;;
45688;SDS011;31400;48.132;20.872;2023-07-30T06:00:45;3.47;;;1.83;;
45688;SDS011;31400;48.132;20.872;2023-07-30T06:03:11;4.35;;;1.85;;
45688;SDS011;31400;48.132;20.872;2023-07-30T06:05:41;3.17;;;1.90;;
45688;SDS011;31400;48.132;20.872;2023-07-30T06:08:07;2.90;;;1.77;;
45688;SDS011;31400;48.132;20.872;2023-07-30T06:10:34;2.35;;;1.60;;
45688;SDS011;31400;48.132;20.872;2023-07-30T06:13:00;5.15;;;1.65;;
45688;SDS011;31400;48.132;20.872;2023-07-30T06:15:30;4.82;;;1.92;;
45688;SDS011;31400;48.132;20.872;2023-07-30T06:17:56;4.35;;;2.30;;
45688;SDS011;31400;48.132;20.872;2023-07-30T06:20:22;2.95;;;1.67;;
45688;SDS011;31400;48.132;20.872;2023-07-30T06:22:51;4.32;;;2.15;;
45688;SDS011;31400;48.132;20.872;2023-07-30T06:25:17;3.15;;;1.63;;
45688;SDS011;31400;48.132;20.872;2023-07-30T06:27:43;2.30;;;1.65;;
45688;SDS011;31400;48.132;20.872;2023-07-30T06:30:09;5.25;;;2.53;;
45688;SDS011;31400;48.132;20.872;2023-07-30T06:32:42;2.85;;;1.88;;
45688;SDS011;31400;48.132;20.872;2023-07-30T06:35:09;3.58;;;1.95;;
45688;SDS011;31400;48.132;20.872;2023-07-30T06:37:35;3.33;;;1.92;;
45688;SDS011;31400;48.132;20.872;2023-07-30T06:40:01;3.35;;;1.90;;
45688;SDS011;31400;48.132;20.872;2023-07-30T06:42:31;4.20;;;1.98;;
45688;SDS011;31400;48.132;20.872;2023-07-30T06:44:57;3.95;;;2.15;;
45688;SDS011;31400;48.132;20.872;2023-07-30T06:47:23;3.50;;;1.95;;
45688;SDS011;31400;48.132;20.872;2023-07-30T06:49:52;3.50;;;1.67;;
45688;SDS011;31400;48.132;20.872;2023-07-30T06:52:18;3.22;;;1.98;;
45688;SDS011;31400;48.132;20.872;2023-07-30T06:54:48;3.97;;;2.20;;
45688;SDS011;31400;48.132;20.872;2023-07-30T06:57:15;4.78;;;2.50;;
45688;SDS011;31400;48.132;20.872;2023-07-30T06:59:42;3.97;;;2.22;;
45688;SDS011;31400;48.132;20.872;2023-07-30T07:02:08;3.45;;;1.75;;
45688;SDS011;31400;48.132;20.872;2023-07-30T07:04:46;6.07;;;2.83;;
45688;SDS011;31400;48.132;20.872;2023-07-30T07:07:12;2.92;;;2.08;;
45688;SDS011;31400;48.132;20.872;2023-07-30T07:09:38;8.15;;;2.95;;
45688;SDS011;31400;48.132;20.872;2023-07-30T07:12:06;4.47;;;2.03;;
45688;SDS011;31400;48.132;20.872;2023-07-30T07:14:32;3.90;;;2.45;;
45688;SDS011;31400;48.132;20.872;2023-07-30T07:17:02;6.07;;;2.85;;
45688;SDS011;31400;48.132;20.872;2023-07-30T07:19:28;3.13;;;1.90;;
45688;SDS011;31400;48.132;20.872;2023-07-30T07:21:54;4.60;;;2.17;;
45688;SDS011;31400;48.132;20.872;2023-07-30T07:24:38;9.05;;;2.88;;
45688;SDS011;31400;48.132;20.872;2023-07-30T07:27:04;3.75;;;2.28;;
45688;SDS011;31400;48.132;20.872;2023-07-30T07:29:30;4.47;;;2.35;;
45688;SDS011;31400;48.132;20.872;2023-07-30T07:31:56;6.93;;;3.10;;
45688;SDS011;31400;48.132;20.872;2023-07-30T07:34:25;3.50;;;2.13;;
45688;SDS011;31400;48.132;20.872;2023-07-30T07:36:54;5.22;;;1.92;;
45688;SDS011;31400;48.132;20.872;2023-07-30T07:39:23;6.85;;;1.88;;
45688;SDS011;31400;48.132;20.872;2023-07-30T07:41:49;6.65;;;2.20;;
45688;SDS011;31400;48.132;20.872;2023-07-30T07:44:15;3.28;;;2.17;;
45688;SDS011;31400;48.132;20.872;2023-07-30T07:46:41;2.55;;;1.70;;
45688;SDS011;31400;48.132;20.872;2023-07-30T07:49:07;3.40;;;2.22;;
45688;SDS011;31400;48.132;20.872;2023-07-30T07:51:33;3.85;;;2.38;;
45688;SDS011;31400;48.132;20.872;2023-07-30T07:53:59;2.35;;;1.63;;
45688;SDS011;31400;48.132;20.872;2023-07-30T07:56:29;4.63;;;2.40;;
45688;SDS011;31400;48.132;20.872;2023-07-30T07:58:58;3.75;;;2.15;;
45688;SDS011;31400;48.132;20.872;2023-07-30T08:01:25;8.70;;;2.45;;
45688;SDS011;31400;48.132;20.872;2023-07-30T08:03:51;4.97;;;1.98;;
45688;SDS011;31400;48.132;20.872;2023-07-30T08:06:17;3.60;;;2.30;;
45688;SDS011;31400;48.132;20.872;2023-07-30T08:08:45;4.90;;;2.25;;
45688;SDS011;31400;48.132;20.872;2023-07-30T08:11:12;3.05;;;1.88;;
45688;SDS011;31400;48.132;20.872;2023-07-30T08:13:38;3.78;;;2.05;;
45688;SDS011;31400;48.132;20.872;2023-07-30T08:16:04;4.28;;;2.10;;
45688;SDS011;31400;48.132;20.872;2023-07-30T08:18:30;4.10;;;2.10;;
45688;SDS011;31400;48.132;20.872;2023-07-30T08:20:57;4.50;;;2.08;;
45688;SDS011;31400;48.132;20.872;2023-07-30T08:23:23;3.55;;;2.22;;
45688;SDS011;31400;48.132;20.872;2023-07-30T08:25:49;4.85;;;2.83;;
45688;SDS011;31400;48.132;20.872;2023-07-30T08:28:15;3.88;;;1.98;;
45688;SDS011;31400;48.132;20.872;2023-07-30T08:30:41;7.13;;;1.85;;
45688;SDS011;31400;48.132;20.872;2023-07-30T08:33:07;3.08;;;1.85;;
45688;SDS011;31400;48.132;20.872;2023-07-30T08:35:36;3.72;;;2.08;;
45688;SDS011;31400;48.132;20.872;2023-07-30T08:38:03;4.88;;;2.47;;
45688;SDS011;31400;48.132;20.872;2023-07-30T08:40:29;5.32;;;2.13;;
45688;SDS011;31400;48.132;20.872;2023-07-30T08:42:55;5.97;;;2.20;;
45688;SDS011;31400;48.132;20.872;2023-07-30T08:45:21;3.08;;;2.03;;
45688;SDS011;31400;48.132;20.872;2023-07-30T08:47:47;8.77;;;2.30;;
45688;SDS011;31400;48.132;20.872;2023-07-30T08:50:13;5.18;;;2.50;;
45688;SDS011;31400;48.132;20.872;2023-07-30T08:52:40;4.63;;;1.67;;
45688;SDS011;31400;48.132;20.872;2023-07-30T08:55:07;3.75;;;2.60;;
45688;SDS011;31400;48.132;20.872;2023-07-30T08:57:33;6.20;;;2.75;;
45688;SDS011;31400;48.132;20.872;2023-07-30T09:00:06;3.40;;;2.22;;
45688;SDS011;31400;48.132;20.872;2023-07-30T09:02:49;3.28;;;2.03;;
45688;SDS011;31400;48.132;20.872;2023-07-30T09:05:16;3.70;;;2.20;;
45688;SDS011;31400;48.132;20.872;2023-07-30T09:07:42;7.70;;;3.00;;
45688;SDS011;31400;48.132;20.872;2023-07-30T09:10:09;4.60;;;2.78;;
45688;SDS011;31400;48.132;20.872;2023-07-30T09:12:35;2.92;;;2.17;;
45688;SDS011;31400;48.132;20.872;2023-07-30T09:15:05;3.55;;;2.03;;
45688;SDS011;31400;48.132;20.872;2023-07-30T09:17:32;4.75;;;2.33;;
45688;SDS011;31400;48.132;20.872;2023-07-30T09:20:01;6.18;;;2.70;;
45688;SDS011;31400;48.132;20.872;2023-07-30T09:22:29;3.35;;;2.17;;
45688;SDS011;31400;48.132;20.872;2023-07-30T09:25:00;4.05;;;2.30;;
45688;SDS011;31400;48.132;20.872;2023-07-30T09:27:27;3.53;;;2.35;;
45688;SDS011;31400;48.132;20.872;2023-07-30T09:29:56;6.47;;;2.67;;
45688;SDS011;31400;48.132;20.872;2023-07-30T09:32:26;3.65;;;2.42;;
45688;SDS011;31400;48.132;20.872;2023-07-30T09:34:52;3.63;;;2.50;;
45688;SDS011;31400;48.132;20.872;2023-07-30T09:37:19;4.13;;;2.40;;
45688;SDS011;31400;48.132;20.872;2023-07-30T09:39:47;3.13;;;2.22;;
45688;SDS011;31400;48.132;20.872;2023-07-30T09:42:13;4.70;;;2.85;;
45688;SDS011;31400;48.132;20.872;2023-07-30T09:44:40;10.82;;;2.20;;
45688;SDS011;31400;48.132;20.872;2023-07-30T09:47:09;9.25;;;2.28;;
45688;SDS011;31400;48.132;20.872;2023-07-30T09:49:36;7.88;;;2.60;;
45688;SDS011;31400;48.132;20.872;2023-07-30T09:52:03;3.10;;;2.22;;
45688;SDS011;31400;48.132;20.872;2023-07-30T09:54:30;7.95;;;2.53;;
45688;SDS011;31400;48.132;20.872;2023-07-30T09:57:00;3.95;;;2.45;;
45688;SDS011;31400;48.132;20.872;2023-07-30T09:59:26;13.05;;;2.15;;
45688;SDS011;31400;48.132;20.872;2023-07-30T10:01:53;3.50;;;2.28;;
45688;SDS011;31400;48.132;20.872;2023-07-30T10:04:23;4.82;;;1.83;;
45688;SDS011;31400;48.132;20.872;2023-07-30T10:06:58;3.55;;;2.05;;
45688;SDS011;31400;48.132;20.872;2023-07-30T10:09:27;5.82;;;2.33;;
45688;SDS011;31400;48.132;20.872;2023-07-30T10:11:54;6.68;;;2.65;;
45688;SDS011;31400;48.132;20.872;2023-07-30T10:14:22;2.85;;;1.75;;
45688;SDS011;31400;48.132;20.872;2023-07-30T10:16:55;3.30;;;2.22;;
45688;SDS011;31400;48.132;20.872;2023-07-30T10:19:25;3.67;;;1.95;;
45688;SDS011;31400;48.132;20.872;2023-07-30T10:21:53;6.22;;;2.08;;
45688;SDS011;31400;48.132;20.872;2023-07-30T10:24:25;4.25;;;2.20;;
45688;SDS011;31400;48.132;20.872;2023-07-30T10:27:03;4.22;;;1.95;;
45688;SDS011;31400;48.132;20.872;2023-07-30T10:29:30;3.28;;;1.85;;
45688;SDS011;31400;48.132;20.872;2023-07-30T10:31:57;4.65;;;2.05;;
45688;SDS011;31400;48.132;20.872;2023-07-30T10:34:26;2.78;;;1.67;;
45688;SDS011;31400;48.132;20.872;2023-07-30T10:36:55;3.80;;;2.40;;
45688;SDS011;31400;48.132;20.872;2023-07-30T10:39:25;5.18;;;2.20;;
45688;SDS011;31400;48.132;20.872;2023-07-30T10:41:53;3.65;;;1.98;;
45688;SDS011;31400;48.132;20.872;2023-07-30T10:46:54;3.40;;;2.28;;
45688;SDS011;31400;48.132;20.872;2023-07-30T10:49:21;4.15;;;2.25;;
45688;SDS011;31400;48.132;20.872;2023-07-30T10:51:57;4.45;;;2.85;;
45688;SDS011;31400;48.132;20.872;2023-07-30T10:54:35;7.03;;;3.13;;
45688;SDS011;31400;48.132;20.872;2023-07-30T10:57:08;5.32;;;3.20;;
45688;SDS011;31400;48.132;20.872;2023-07-30T10:59:35;4.15;;;2.20;;
45688;SDS011;31400;48.132;20.872;2023-07-30T11:02:04;5.95;;;3.00;;
45688;SDS011;31400;48.132;20.872;2023-07-30T11:04:33;5.50;;;2.55;;
45688;SDS011;31400;48.132;20.872;2023-07-30T11:06:59;8.15;;;2.63;;
45688;SDS011;31400;48.132;20.872;2023-07-30T11:09:28;4.28;;;2.67;;
45688;SDS011;31400;48.132;20.872;2023-07-30T11:11:55;4.57;;;2.55;;
45688;SDS011;31400;48.132;20.872;2023-07-30T11:14:22;3.97;;;2.08;;
45688;SDS011;31400;48.132;20.872;2023-07-30T11:16:54;5.00;;;2.28;;
45688;SDS011;31400;48.132;20.872;2023-07-30T11:22:28;4.50;;;2.53;;
45688;SDS011;31400;48.132;20.872;2023-07-30T11:24:55;3.40;;;1.90;;
45688;SDS011;31400;48.132;20.872;2023-07-30T11:27:21;2.58;;;1.58;;
45688;SDS011;31400;48.132;20.872;2023-07-30T11:29:54;3.60;;;2.47;;
45688;SDS011;31400;48.132;20.872;2023-07-30T11:32:36;3.25;;;1.35;;
45688;SDS011;31400;48.132;20.872;2023-07-30T11:35:05;4.70;;;2.17;;
45688;SDS011;31400;48.132;20.872;2023-07-30T11:37:35;2.78;;;1.60;;
45688;SDS011;31400;48.132;20.872;2023-07-30T11:40:06;2.47;;;1.55;;
45688;SDS011;31400;48.132;20.872;2023-07-30T11:42:32;3.15;;;1.80;;
45688;SDS011;31400;48.132;20.872;2023-07-30T11:45:01;2.25;;;1.45;;
45688;SDS011;31400;48.132;20.872;2023-07-30T11:47:42;1.83;;;1.33;;
45688;SDS011;31400;48.132;20.872;2023-07-30T11:50:08;4.28;;;1.42;;
45688;SDS011;31400;48.132;20.872;2023-07-30T11:52:34;3.88;;;2.17;;
45688;SDS011;31400;48.132;20.872;2023-07-30T11:55:01;2.25;;;1.42;;
45688;SDS011;31400;48.132;20.872;2023-07-30T11:57:34;2.38;;;1.40;;
45688;SDS011;31400;48.132;20.872;2023-07-30T12:00:00;3.72;;;1.98;;
45688;SDS011;31400;48.132;20.872;2023-07-30T12:02:28;2.30;;;1.13;;
45688;SDS011;31400;48.132;20.872;2023-07-30T12:04:54;2.13;;;1.23;;
45688;SDS011;31400;48.132;20.872;2023-07-30T12:07:23;3.15;;;1.35;;
45688;SDS011;31400;48.132;20.872;2023-07-30T12:09:50;2.35;;;1.38;;
45688;SDS011;31400;48.132;20.872;2023-07-30T12:12:16;3.22;;;1.70;;
45688;SDS011;31400;48.132;20.872;2023-07-30T12:17:08;2.75;;;1.67;;
45688;SDS011;31400;48.132;20.872;2023-07-30T12:19:34;3.17;;;1.40;;
45688;SDS011;31400;48.132;20.872;2023-07-30T12:22:03;2.55;;;1.63;;
45688;SDS011;31400;48.132;20.872;2023-07-30T12:24:29;1.95;;;1.20;;
45688;SDS011;31400;48.132;20.872;2023-07-30T12:26:55;2.05;;;1.25;;
45688;SDS011;31400;48.132;20.872;2023-07-30T12:29:21;1.90;;;0.90;;
45688;SDS011;31400;48.132;20.872;2023-07-30T12:32:00;2.20;;;1.10;;
45688;SDS011;31400;48.132;20.872;2023-07-30T12:34:26;1.92;;;1.13;;
45688;SDS011;31400;48.132;20.872;2023-07-30T12:36:58;3.97;;;1.42;;
45688;SDS011;31400;48.132;20.872;2023-07-30T12:39:43;3.60;;;1.30;;
45688;SDS011;31400;48.132;20.872;2023-07-30T12:42:12;1.63;;;1.10;;
45688;SDS011;31400;48.132;20.872;2023-07-30T12:44:41;2.53;;;0.95;;
45688;SDS011;31400;48.132;20.872;2023-07-30T12:47:07;2.53;;;1.20;;
45688;SDS011;31400;48.132;20.872;2023-07-30T12:49:40;1.77;;;1.02;;
45688;SDS011;31400;48.132;20.872;2023-07-30T12:52:13;2.53;;;1.55;;
45688;SDS011;31400;48.132;20.872;2023-07-30T12:54:39;2.20;;;1.17;;
45688;SDS011;31400;48.132;20.872;2023-07-30T12:57:05;2.20;;;1.30;;
45688;SDS011;31400;48.132;20.872;2023-07-30T12:59:32;2.33;;;1.10;;
45688;SDS011;31400;48.132;20.872;2023-07-30T13:01:58;2.83;;;1.13;;
45688;SDS011;31400;48.132;20.872;2023-07-30T13:04:24;9.73;;;1.40;;
45688;SDS011;31400;48.132;20.872;2023-07-30T13:06:56;2.13;;;1.23;;
45688;SDS011;31400;48.132;20.872;2023-07-30T13:09:24;11.05;;;1.67;;
45688;SDS011;31400;48.132;20.872;2023-07-30T13:11:50;6.38;;;1.70;;
45688;SDS011;31400;48.132;20.872;2023-07-30T13:14:16;3.85;;;1.58;;
45688;SDS011;31400;48.132;20.872;2023-07-30T13:16:45;2.38;;;1.00;;
45688;SDS011;31400;48.132;20.872;2023-07-30T13:19:21;2.22;;;1.17;;
45688;SDS011;31400;48.132;20.872;2023-07-30T13:21:48;3.60;;;1.60;;
45688;SDS011;31400;48.132;20.872;2023-07-30T13:24:16;2.40;;;1.38;;
45688;SDS011;31400;48.132;20.872;2023-07-30T13:26:45;2.80;;;1.20;;
45688;SDS011;31400;48.132;20.872;2023-07-30T13:29:11;2.92;;;1.45;;
45688;SDS011;31400;48.132;20.872;2023-07-30T13:31:37;1.80;;;1.10;;
45688;SDS011;31400;48.132;20.872;2023-07-30T13:34:12;1.77;;;1.05;;
45688;SDS011;31400;48.132;20.872;2023-07-30T13:36:38;2.03;;;0.95;;
45688;SDS011;31400;48.132;20.872;2023-07-30T13:44:07;2.88;;;1.48;;
45688;SDS011;31400;48.132;20.872;2023-07-30T13:46:33;2.60;;;1.42;;
45688;SDS011;31400;48.132;20.872;2023-07-30T13:49:02;2.97;;;1.48;;
45688;SDS011;31400;48.132;20.872;2023-07-30T13:51:28;1.80;;;1.25;;
45688;SDS011;31400;48.132;20.872;2023-07-30T13:53:58;2.28;;;1.40;;
45688;SDS011;31400;48.132;20.872;2023-07-30T13:56:24;2.08;;;1.23;;
45688;SDS011;31400;48.132;20.872;2023-07-30T13:58:59;2.58;;;1.40;;
45688;SDS011;31400;48.132;20.872;2023-07-30T14:01:28;5.30;;;1.27;;
45688;SDS011;31400;48.132;20.872;2023-07-30T14:03:54;2.13;;;1.30;;
45688;SDS011;31400;48.132;20.872;2023-07-30T14:06:20;2.70;;;1.05;;
45688;SDS011;31400;48.132;20.872;2023-07-30T14:08:47;1.85;;;1.08;;
45688;SDS011;31400;48.132;20.872;2023-07-30T14:11:13;1.42;;;1.02;;
45688;SDS011;31400;48.132;20.872;2023-07-30T14:13:39;4.70;;;1.90;;
45688;SDS011;31400;48.132;20.872;2023-07-30T14:16:08;5.28;;;1.00;;
45688;SDS011;31400;48.132;20.872;2023-07-30T14:18:35;3.03;;;0.98;;
45688;SDS011;31400;48.132;20.872;2023-07-30T14:21:06;4.57;;;0.90;;
45688;SDS011;31400;48.132;20.872;2023-07-30T14:23:32;2.67;;;1.48;;
45688;SDS011;31400;48.132;20.872;2023-07-30T14:25:58;2.03;;;1.02;;
45688;SDS011;31400;48.132;20.872;2023-07-30T14:28:24;1.50;;;0.95;;
45688;SDS011;31400;48.132;20.872;2023-07-30T14:30:50;4.43;;;1.27;;
45688;SDS011;31400;48.132;20.872;2023-07-30T14:33:16;1.63;;;1.02;;
45688;SDS011;31400;48.132;20.872;2023-07-30T14:35:42;2.95;;;0.77;;
45688;SDS011;31400;48.132;20.872;2023-07-30T14:38:09;1.58;;;1.20;;
45688;SDS011;31400;48.132;20.872;2023-07-30T14:40:42;3.95;;;1.42;;
45688;SDS011;31400;48.132;20.872;2023-07-30T14:43:08;2.72;;;1.10;;
45688;SDS011;31400;48.132;20.872;2023-07-30T14:45:34;2.95;;;1.48;;
45688;SDS011;31400;48.132;20.872;2023-07-30T14:48:09;2.80;;;1.42;;
45688;SDS011;31400;48.132;20.872;2023-07-30T14:50:39;4.80;;;1.08;;
45688;SDS011;31400;48.132;20.872;2023-07-30T14:53:08;4.97;;;1.30;;
45688;SDS011;31400;48.132;20.872;2023-07-30T14:55:37;1.50;;;1.20;;
45688;SDS011;31400;48.132;20.872;2023-07-30T14:58:03;2.47;;;1.33;;
45688;SDS011;31400;48.132;20.872;2023-07-30T15:00:29;1.92;;;1.20;;
45688;SDS011;31400;48.132;20.872;2023-07-30T15:02:56;2.03;;;1.23;;
45688;SDS011;31400;48.132;20.872;2023-07-30T15:05:22;1.90;;;1.10;;
45688;SDS011;31400;48.132;20.872;2023-07-30T15:07:48;2.42;;;1.52;;
45688;SDS011;31400;48.132;20.872;2023-07-30T15:10:14;1.70;;;1.00;;
45688;SDS011;31400;48.132;20.872;2023-07-30T15:12:42;3.47;;;1.88;;
45688;SDS011;31400;48.132;20.872;2023-07-30T15:15:09;2.95;;;1.60;;
45688;SDS011;31400;48.132;20.872;2023-07-30T15:17:38;3.60;;;1.40;;
45688;SDS011;31400;48.132;20.872;2023-07-30T15:20:04;5.13;;;1.42;;
45688;SDS011;31400;48.132;20.872;2023-07-30T15:22:31;3.63;;;1.58;;
45688;SDS011;31400;48.132;20.872;2023-07-30T15:25:00;1.48;;;1.00;;
45688;SDS011;31400;48.132;20.872;2023-07-30T15:27:26;2.03;;;1.30;;
45688;SDS011;31400;48.132;20.872;2023-07-30T15:29:52;3.10;;;1.55;;
45688;SDS011;31400;48.132;20.872;2023-07-30T15:32:18;1.95;;;1.20;;
45688;SDS011;31400;48.132;20.872;2023-07-30T15:34:46;1.50;;;1.10;;
45688;SDS011;31400;48.132;20.872;2023-07-30T15:37:12;3.83;;;1.42;;
45688;SDS011;31400;48.132;20.872;2023-07-30T15:39:38;4.05;;;1.33;;
45688;SDS011;31400;48.132;20.872;2023-07-30T15:42:10;2.63;;;1.40;;
45688;SDS011;31400;48.132;20.872;2023-07-30T15:44:42;5.90;;;1.60;;
45688;SDS011;31400;48.132;20.872;2023-07-30T15:47:14;2.08;;;1.27;;
45688;SDS011;31400;48.132;20.872;2023-07-30T15:49:43;1.80;;;1.15;;
45688;SDS011;31400;48.132;20.872;2023-07-30T15:52:12;3.30;;;1.42;;
45688;SDS011;31400;48.132;20.872;2023-07-30T15:54:38;2.83;;;1.35;;
45688;SDS011;31400;48.132;20.872;2023-07-30T15:57:04;2.47;;;1.35;;
45688;SDS011;31400;48.132;20.872;2023-07-30T15:59:32;2.03;;;1.30;;
45688;SDS011;31400;48.132;20.872;2023-07-30T16:02:02;2.17;;;1.02;;
45688;SDS011;31400;48.132;20.872;2023-07-30T16:04:32;1.65;;;1.05;;
45688;SDS011;31400;48.132;20.872;2023-07-30T16:07:01;3.60;;;1.50;;
45688;SDS011;31400;48.132;20.872;2023-07-30T16:09:29;2.28;;;1.23;;
45688;SDS011;31400;48.132;20.872;2023-07-30T16:11:55;1.67;;;0.93;;